sensor_id;sensor_type;location;lat;lon;timestamp;P1;durP1;ratioP1;P2;durP2;ratioP2
19482;SDS011;9882;51.166;6.992;2024-02-04T00:00:54;9.38;;;3.72;;
19482;SDS011;9882;51.166;6.992;2024-02-04T00:03:23;7.70;;;3.55;;
19482;SDS011;9882;51.166;6.992;2024-02-04T00:05:54;9.40;;;3.95;;
19482;SDS011;9882;51.166;6.992;2024-02-04T00:08:23;7.55;;;3.55;;
19482;SDS011;9882;51.166;6.992;2024-02-04T00:10:53;6.35;;;3.10;;
19482;SDS011;9882;51.166;6.992;2024-02-04T00:13:23;5.95;;;3.30;;
19482;SDS011;9882;51.166;6.992;2024-02-04T00:15:51;8.00;;;3.40;;
19482;SDS011;9882;51.166;6.992;2024-02-04T00:18:22;4.60;;;2.58;;
19482;SDS011;9882;51.166;6.992;2024-02-04T00:20:51;6.15;;;2.58;;
19482;SDS011;9882;51.166;6.992;2024-02-04T00:23:22;8.75;;;3.45;;
19482;SDS011;9882;51.166;6.992;2024-02-04T00:25:51;3.00;;;2.33;;
19482;SDS011;9882;51.166;6.992;2024-02-04T00:28:23;3.08;;;2.13;;
19482;SDS011;9882;51.166;6.992;2024-02-04T00:30:53;6.22;;;3.22;;
19482;SDS011;9882;51.166;6.992;2024-02-04T00:33:25;7.25;;;2.85;;
19482;SDS011;9882;51.166;6.992;2024-02-04T00:35:55;5.38;;;2.80;;
19482;SDS011;9882;51.166;6.992;2024-02-04T00:38:24;1.77;;;1.67;;
19482;SDS011;9882;51.166;6.992;2024-02-04T00:40:53;3.25;;;2.22;;
19482;SDS011;9882;51.166;6.992;2024-02-04T00:43:24;2.75;;;2.13;;
19482;SDS011;9882;51.166;6.992;2024-02-04T00:45:52;6.97;;;3.47;;
19482;SDS011;9882;51.166;6.992;2024-02-04T00:48:23;3.65;;;2.30;;
19482;SDS011;9882;51.166;6.992;2024-02-04T00:50:52;6.40;;;2.80;;
19482;SDS011;9882;51.166;6.992;2024-02-04T00:53:23;4.47;;;2.65;;
19482;SDS011;9882;51.166;6.992;2024-02-04T00:55:52;4.05;;;2.58;;
19482;SDS011;9882;51.166;6.992;2024-02-04T00:58:21;5.88;;;2.58;;
19482;SDS011;9882;51.166;6.992;2024-02-04T01:00:50;3.65;;;2.50;;
19482;SDS011;9882;51.166;6.992;2024-02-04T01:03:19;6.00;;;2.65;;
19482;SDS011;9882;51.166;6.992;2024-02-04T01:05:48;5.00;;;2.55;;
19482;SDS011;9882;51.166;6.992;2024-02-04T01:08:18;3.88;;;2.70;;
19482;SDS011;9882;51.166;6.992;2024-02-04T01:10:51;3.33;;;2.70;;
19482;SDS011;9882;51.166;6.992;2024-02-04T01:13:20;8.32;;;3.30;;
19482;SDS011;9882;51.166;6.992;2024-02-04T01:15:50;5.88;;;3.35;;
19482;SDS011;9882;51.166;6.992;2024-02-04T01:18:19;4.78;;;2.92;;
19482;SDS011;9882;51.166;6.992;2024-02-04T01:20:48;5.18;;;3.03;;
19482;SDS011;9882;51.166;6.992;2024-02-04T01:23:17;8.02;;;3.20;;
19482;SDS011;9882;51.166;6.992;2024-02-04T01:25:46;4.78;;;2.85;;
19482;SDS011;9882;51.166;6.992;2024-02-04T01:28:16;9.63;;;3.45;;
19482;SDS011;9882;51.166;6.992;2024-02-04T01:30:45;5.68;;;2.85;;
19482;SDS011;9882;51.166;6.992;2024-02-04T01:33:18;7.63;;;3.13;;
19482;SDS011;9882;51.166;6.992;2024-02-04T01:35:47;9.23;;;3.47;;
19482;SDS011;9882;51.166;6.992;2024-02-04T01:38:15;7.00;;;3.30;;
19482;SDS011;9882;51.166;6.992;2024-02-04T01:40:45;11.07;;;3.42;;
19482;SDS011;9882;51.166;6.992;2024-02-04T01:43:17;6.82;;;2.85;;
19482;SDS011;9882;51.166;6.992;2024-02-04T01:45:49;6.78;;;2.97;;
19482;SDS011;9882;51.166;6.992;2024-02-04T01:48:20;7.15;;;3.08;;
19482;SDS011;9882;51.166;6.992;2024-02-04T01:50:50;5.22;;;2.85;;
19482;SDS011;9882;51.166;6.992;2024-02-04T01:53:21;5.82;;;3.28;;
19482;SDS011;9882;51.166;6.992;2024-02-04T01:55:51;4.78;;;2.83;;
19482;SDS011;9882;51.166;6.992;2024-02-04T01:58:23;8.38;;;3.40;;
19482;SDS011;9882;51.166;6.992;2024-02-04T02:00:52;4.95;;;2.90;;
19482;SDS011;9882;51.166;6.992;2024-02-04T02:03:22;7.95;;;3.38;;
19482;SDS011;9882;51.166;6.992;2024-02-04T02:05:52;4.40;;;2.85;;
19482;SDS011;9882;51.166;6.992;2024-02-04T02:08:21;4.72;;;2.58;;
19482;SDS011;9882;51.166;6.992;2024-02-04T02:10:50;5.57;;;2.88;;
19482;SDS011;9882;51.166;6.992;2024-02-04T02:13:38;3.95;;;2.45;;
19482;SDS011;9882;51.166;6.992;2024-02-04T02:16:11;3.67;;;2.50;;
19482;SDS011;9882;51.166;6.992;2024-02-04T02:18:48;3.67;;;2.47;;
19482;SDS011;9882;51.166;6.992;2024-02-04T02:21:25;5.97;;;3.10;;
19482;SDS011;9882;51.166;6.992;2024-02-04T02:24:04;3.22;;;2.13;;
19482;SDS011;9882;51.166;6.992;2024-02-04T02:26:40;5.22;;;2.53;;
19482;SDS011;9882;51.166;6.992;2024-02-04T02:29:10;3.40;;;2.38;;
19482;SDS011;9882;51.166;6.992;2024-02-04T02:31:40;3.72;;;2.38;;
19482;SDS011;9882;51.166;6.992;2024-02-04T02:34:10;4.43;;;2.58;;
19482;SDS011;9882;51.166;6.992;2024-02-04T02:36:43;7.00;;;2.95;;
19482;SDS011;9882;51.166;6.992;2024-02-04T02:39:14;3.78;;;2.97;;
19482;SDS011;9882;51.166;6.992;2024-02-04T02:41:54;3.88;;;2.55;;
19482;SDS011;9882;51.166;6.992;2024-02-04T02:44:27;5.97;;;2.78;;
19482;SDS011;9882;51.166;6.992;2024-02-04T02:46:57;4.50;;;2.70;;
19482;SDS011;9882;51.166;6.992;2024-02-04T02:49:28;5.80;;;2.92;;
19482;SDS011;9882;51.166;6.992;2024-02-04T02:51:57;5.03;;;2.78;;
19482;SDS011;9882;51.166;6.992;2024-02-04T02:54:26;7.35;;;3.17;;
19482;SDS011;9882;51.166;6.992;2024-02-04T02:56:56;5.60;;;2.35;;
19482;SDS011;9882;51.166;6.992;2024-02-04T02:59:25;4.90;;;2.55;;
19482;SDS011;9882;51.166;6.992;2024-02-04T03:01:54;5.25;;;2.88;;
19482;SDS011;9882;51.166;6.992;2024-02-04T03:04:25;4.47;;;2.78;;
19482;SDS011;9882;51.166;6.992;2024-02-04T03:06:54;6.43;;;3.30;;
19482;SDS011;9882;51.166;6.992;2024-02-04T03:09:23;6.13;;;2.80;;
19482;SDS011;9882;51.166;6.992;2024-02-04T03:11:52;8.90;;;3.55;;
19482;SDS011;9882;51.166;6.992;2024-02-04T03:14:23;5.18;;;2.75;;
19482;SDS011;9882;51.166;6.992;2024-02-04T03:16:54;5.25;;;2.80;;
19482;SDS011;9882;51.166;6.992;2024-02-04T03:19:22;7.57;;;2.85;;
19482;SDS011;9882;51.166;6.992;2024-02-04T03:21:51;5.85;;;2.88;;
19482;SDS011;9882;51.166;6.992;2024-02-04T03:24:20;9.57;;;3.72;;
19482;SDS011;9882;51.166;6.992;2024-02-04T03:26:50;7.05;;;3.00;;
19482;SDS011;9882;51.166;6.992;2024-02-04T03:29:19;6.03;;;3.08;;
19482;SDS011;9882;51.166;6.992;2024-02-04T03:31:49;5.53;;;2.58;;
19482;SDS011;9882;51.166;6.992;2024-02-04T03:34:19;9.10;;;3.42;;
19482;SDS011;9882;51.166;6.992;2024-02-04T03:36:48;9.13;;;3.28;;
19482;SDS011;9882;51.166;6.992;2024-02-04T03:39:17;6.15;;;2.95;;
19482;SDS011;9882;51.166;6.992;2024-02-04T03:41:46;7.60;;;3.28;;
19482;SDS011;9882;51.166;6.992;2024-02-04T03:44:15;7.30;;;3.20;;
19482;SDS011;9882;51.166;6.992;2024-02-04T03:46:47;8.20;;;3.80;;
19482;SDS011;9882;51.166;6.992;2024-02-04T03:49:17;10.40;;;3.47;;
19482;SDS011;9882;51.166;6.992;2024-02-04T03:51:46;4.60;;;2.85;;
19482;SDS011;9882;51.166;6.992;2024-02-04T03:54:16;7.95;;;3.20;;
19482;SDS011;9882;51.166;6.992;2024-02-04T03:56:46;11.63;;;3.78;;
19482;SDS011;9882;51.166;6.992;2024-02-04T03:59:15;7.28;;;3.47;;
19482;SDS011;9882;51.166;6.992;2024-02-04T04:01:46;6.75;;;3.13;;
19482;SDS011;9882;51.166;6.992;2024-02-04T04:04:18;7.85;;;3.38;;
19482;SDS011;9882;51.166;6.992;2024-02-04T04:06:47;9.40;;;4.18;;
19482;SDS011;9882;51.166;6.992;2024-02-04T04:09:16;11.88;;;3.72;;
19482;SDS011;9882;51.166;6.992;2024-02-04T04:11:45;10.63;;;3.75;;
19482;SDS011;9882;51.166;6.992;2024-02-04T04:14:14;11.00;;;4.03;;
19482;SDS011;9882;51.166;6.992;2024-02-04T04:16:43;8.52;;;3.65;;
19482;SDS011;9882;51.166;6.992;2024-02-04T04:19:12;10.98;;;4.50;;
19482;SDS011;9882;51.166;6.992;2024-02-04T04:21:42;11.13;;;3.85;;
19482;SDS011;9882;51.166;6.992;2024-02-04T04:24:12;11.45;;;4.50;;
19482;SDS011;9882;51.166;6.992;2024-02-04T04:26:42;11.70;;;4.20;;
19482;SDS011;9882;51.166;6.992;2024-02-04T04:29:11;10.45;;;4.78;;
19482;SDS011;9882;51.166;6.992;2024-02-04T04:31:40;11.35;;;4.57;;
19482;SDS011;9882;51.166;6.992;2024-02-04T04:34:09;17.25;;;5.85;;
19482;SDS011;9882;51.166;6.992;2024-02-04T04:36:38;11.23;;;4.30;;
19482;SDS011;9882;51.166;6.992;2024-02-04T04:39:08;14.75;;;4.47;;
19482;SDS011;9882;51.166;6.992;2024-02-04T04:41:38;16.20;;;5.25;;
19482;SDS011;9882;51.166;6.992;2024-02-04T04:44:07;10.85;;;3.95;;
19482;SDS011;9882;51.166;6.992;2024-02-04T04:46:37;14.85;;;4.70;;
19482;SDS011;9882;51.166;6.992;2024-02-04T04:49:09;9.82;;;4.55;;
19482;SDS011;9882;51.166;6.992;2024-02-04T04:51:43;10.75;;;4.40;;
19482;SDS011;9882;51.166;6.992;2024-02-04T04:54:15;10.20;;;4.10;;
19482;SDS011;9882;51.166;6.992;2024-02-04T04:56:43;13.40;;;4.93;;
19482;SDS011;9882;51.166;6.992;2024-02-04T04:59:12;10.85;;;4.75;;
19482;SDS011;9882;51.166;6.992;2024-02-04T05:01:46;13.68;;;4.95;;
19482;SDS011;9882;51.166;6.992;2024-02-04T05:04:15;16.50;;;5.50;;
19482;SDS011;9882;51.166;6.992;2024-02-04T05:06:45;10.52;;;4.65;;
19482;SDS011;9882;51.166;6.992;2024-02-04T05:09:16;12.27;;;4.50;;
19482;SDS011;9882;51.166;6.992;2024-02-04T05:11:45;15.05;;;4.72;;
19482;SDS011;9882;51.166;6.992;2024-02-04T05:14:14;14.02;;;5.03;;
19482;SDS011;9882;51.166;6.992;2024-02-04T05:16:43;17.92;;;4.85;;
19482;SDS011;9882;51.166;6.992;2024-02-04T05:19:13;18.13;;;5.63;;
19482;SDS011;9882;51.166;6.992;2024-02-04T05:21:41;12.60;;;4.75;;
19482;SDS011;9882;51.166;6.992;2024-02-04T05:24:10;15.07;;;4.97;;
19482;SDS011;9882;51.166;6.992;2024-02-04T05:26:40;12.50;;;4.63;;
19482;SDS011;9882;51.166;6.992;2024-02-04T05:29:09;14.60;;;4.18;;
19482;SDS011;9882;51.166;6.992;2024-02-04T05:31:40;14.32;;;4.43;;
19482;SDS011;9882;51.166;6.992;2024-02-04T05:34:10;14.55;;;5.07;;
19482;SDS011;9882;51.166;6.992;2024-02-04T05:36:39;12.60;;;4.82;;
19482;SDS011;9882;51.166;6.992;2024-02-04T05:39:09;14.15;;;4.70;;
19482;SDS011;9882;51.166;6.992;2024-02-04T05:41:41;13.48;;;4.70;;
19482;SDS011;9882;51.166;6.992;2024-02-04T05:44:10;11.00;;;4.88;;
19482;SDS011;9882;51.166;6.992;2024-02-04T05:46:39;15.23;;;6.05;;
19482;SDS011;9882;51.166;6.992;2024-02-04T05:49:07;13.98;;;5.30;;
19482;SDS011;9882;51.166;6.992;2024-02-04T05:51:37;13.50;;;4.45;;
19482;SDS011;9882;51.166;6.992;2024-02-04T05:54:07;13.35;;;5.35;;
19482;SDS011;9882;51.166;6.992;2024-02-04T05:56:37;16.35;;;5.55;;
19482;SDS011;9882;51.166;6.992;2024-02-04T05:59:08;20.23;;;6.10;;
19482;SDS011;9882;51.166;6.992;2024-02-04T06:01:37;13.00;;;4.45;;
19482;SDS011;9882;51.166;6.992;2024-02-04T06:04:06;15.10;;;4.85;;
19482;SDS011;9882;51.166;6.992;2024-02-04T06:06:35;12.40;;;5.28;;
19482;SDS011;9882;51.166;6.992;2024-02-04T06:09:04;16.45;;;5.40;;
19482;SDS011;9882;51.166;6.992;2024-02-04T06:11:34;17.80;;;5.93;;
19482;SDS011;9882;51.166;6.992;2024-02-04T06:14:03;18.33;;;5.85;;
19482;SDS011;9882;51.166;6.992;2024-02-04T06:16:33;15.25;;;5.50;;
19482;SDS011;9882;51.166;6.992;2024-02-04T06:19:02;13.70;;;5.45;;
19482;SDS011;9882;51.166;6.992;2024-02-04T06:21:32;19.08;;;6.15;;
19482;SDS011;9882;51.166;6.992;2024-02-04T06:24:01;12.32;;;5.15;;
19482;SDS011;9882;51.166;6.992;2024-02-04T06:26:30;12.98;;;5.10;;
19482;SDS011;9882;51.166;6.992;2024-02-04T06:29:02;27.48;;;6.35;;
19482;SDS011;9882;51.166;6.992;2024-02-04T06:31:32;19.10;;;5.97;;
19482;SDS011;9882;51.166;6.992;2024-02-04T06:34:01;14.32;;;4.72;;
19482;SDS011;9882;51.166;6.992;2024-02-04T06:36:32;13.80;;;4.68;;
19482;SDS011;9882;51.166;6.992;2024-02-04T06:39:01;15.70;;;5.20;;
19482;SDS011;9882;51.166;6.992;2024-02-04T06:41:30;16.40;;;4.53;;
19482;SDS011;9882;51.166;6.992;2024-02-04T06:44:02;8.25;;;4.15;;
19482;SDS011;9882;51.166;6.992;2024-02-04T06:46:33;16.63;;;4.60;;
19482;SDS011;9882;51.166;6.992;2024-02-04T06:49:02;12.13;;;4.45;;
19482;SDS011;9882;51.166;6.992;2024-02-04T06:51:31;16.00;;;5.00;;
19482;SDS011;9882;51.166;6.992;2024-02-04T06:54:00;15.05;;;4.57;;
19482;SDS011;9882;51.166;6.992;2024-02-04T06:56:30;12.77;;;5.00;;
19482;SDS011;9882;51.166;6.992;2024-02-04T06:58:59;13.23;;;4.60;;
19482;SDS011;9882;51.166;6.992;2024-02-04T07:01:28;12.35;;;4.40;;
19482;SDS011;9882;51.166;6.992;2024-02-04T07:03:58;10.05;;;4.18;;
19482;SDS011;9882;51.166;6.992;2024-02-04T07:06:27;9.80;;;4.20;;
19482;SDS011;9882;51.166;6.992;2024-02-04T07:08:56;16.70;;;4.50;;
19482;SDS011;9882;51.166;6.992;2024-02-04T07:11:26;7.55;;;3.53;;
19482;SDS011;9882;51.166;6.992;2024-02-04T07:13:54;7.40;;;3.10;;
19482;SDS011;9882;51.166;6.992;2024-02-04T07:16:27;5.03;;;3.25;;
19482;SDS011;9882;51.166;6.992;2024-02-04T07:18:57;12.80;;;4.50;;
19482;SDS011;9882;51.166;6.992;2024-02-04T07:21:27;8.55;;;3.40;;
19482;SDS011;9882;51.166;6.992;2024-02-04T07:23:56;8.80;;;3.25;;
19482;SDS011;9882;51.166;6.992;2024-02-04T07:26:26;9.40;;;3.83;;
19482;SDS011;9882;51.166;6.992;2024-02-04T07:28:55;8.27;;;3.13;;
19482;SDS011;9882;51.166;6.992;2024-02-04T07:31:24;9.77;;;3.90;;
19482;SDS011;9882;51.166;6.992;2024-02-04T07:33:53;6.50;;;2.97;;
19482;SDS011;9882;51.166;6.992;2024-02-04T07:36:24;5.55;;;3.25;;
19482;SDS011;9882;51.166;6.992;2024-02-04T07:38:53;5.97;;;3.00;;
19482;SDS011;9882;51.166;6.992;2024-02-04T07:41:22;6.75;;;3.00;;
19482;SDS011;9882;51.166;6.992;2024-02-04T07:43:52;7.10;;;2.97;;
19482;SDS011;9882;51.166;6.992;2024-02-04T07:46:21;8.20;;;3.17;;
19482;SDS011;9882;51.166;6.992;2024-02-04T07:48:50;7.40;;;3.45;;
19482;SDS011;9882;51.166;6.992;2024-02-04T07:51:19;7.25;;;2.88;;
19482;SDS011;9882;51.166;6.992;2024-02-04T07:53:50;5.07;;;2.92;;
19482;SDS011;9882;51.166;6.992;2024-02-04T07:56:19;3.25;;;2.30;;
19482;SDS011;9882;51.166;6.992;2024-02-04T07:58:47;6.70;;;2.90;;
19482;SDS011;9882;51.166;6.992;2024-02-04T08:01:17;3.78;;;2.35;;
19482;SDS011;9882;51.166;6.992;2024-02-04T08:03:47;3.60;;;2.15;;
19482;SDS011;9882;51.166;6.992;2024-02-04T08:06:19;6.03;;;2.63;;
19482;SDS011;9882;51.166;6.992;2024-02-04T08:08:50;3.60;;;2.47;;
19482;SDS011;9882;51.166;6.992;2024-02-04T08:11:20;3.92;;;2.50;;
19482;SDS011;9882;51.166;6.992;2024-02-04T08:13:50;5.35;;;2.60;;
19482;SDS011;9882;51.166;6.992;2024-02-04T08:16:19;5.97;;;2.90;;
19482;SDS011;9882;51.166;6.992;2024-02-04T08:18:48;3.10;;;2.05;;
19482;SDS011;9882;51.166;6.992;2024-02-04T08:21:17;4.97;;;2.22;;
19482;SDS011;9882;51.166;6.992;2024-02-04T08:23:46;2.40;;;2.20;;
19482;SDS011;9882;51.166;6.992;2024-02-04T08:26:17;3.47;;;2.28;;
19482;SDS011;9882;51.166;6.992;2024-02-04T08:28:46;4.32;;;2.55;;
19482;SDS011;9882;51.166;6.992;2024-02-04T08:31:15;4.13;;;2.53;;
19482;SDS011;9882;51.166;6.992;2024-02-04T08:33:44;3.78;;;2.08;;
19482;SDS011;9882;51.166;6.992;2024-02-04T08:36:13;3.10;;;2.17;;
19482;SDS011;9882;51.166;6.992;2024-02-04T08:38:42;3.55;;;2.47;;
19482;SDS011;9882;51.166;6.992;2024-02-04T08:41:13;3.05;;;2.33;;
19482;SDS011;9882;51.166;6.992;2024-02-04T08:43:43;2.30;;;1.98;;
19482;SDS011;9882;51.166;6.992;2024-02-04T08:46:13;2.70;;;2.10;;
19482;SDS011;9882;51.166;6.992;2024-02-04T08:48:42;5.93;;;2.30;;
19482;SDS011;9882;51.166;6.992;2024-02-04T08:51:12;4.65;;;2.45;;
19482;SDS011;9882;51.166;6.992;2024-02-04T08:53:43;4.85;;;2.10;;
19482;SDS011;9882;51.166;6.992;2024-02-04T08:56:12;3.20;;;1.90;;
19482;SDS011;9882;51.166;6.992;2024-02-04T08:58:41;4.03;;;2.22;;
19482;SDS011;9882;51.166;6.992;2024-02-04T09:01:13;3.22;;;2.28;;
19482;SDS011;9882;51.166;6.992;2024-02-04T09:03:42;6.15;;;3.15;;
19482;SDS011;9882;51.166;6.992;2024-02-04T09:06:11;4.30;;;2.40;;
19482;SDS011;9882;51.166;6.992;2024-02-04T09:08:39;3.63;;;2.22;;
19482;SDS011;9882;51.166;6.992;2024-02-04T09:11:08;5.03;;;2.55;;
19482;SDS011;9882;51.166;6.992;2024-02-04T09:13:38;4.95;;;2.90;;
19482;SDS011;9882;51.166;6.992;2024-02-04T09:16:08;5.05;;;2.55;;
19482;SDS011;9882;51.166;6.992;2024-02-04T09:18:37;7.32;;;3.20;;
19482;SDS011;9882;51.166;6.992;2024-02-04T09:21:06;7.07;;;3.00;;
19482;SDS011;9882;51.166;6.992;2024-02-04T09:23:35;4.22;;;2.40;;
19482;SDS011;9882;51.166;6.992;2024-02-04T09:26:04;2.55;;;2.35;;
19482;SDS011;9882;51.166;6.992;2024-02-04T09:28:33;6.05;;;2.50;;
19482;SDS011;9882;51.166;6.992;2024-02-04T09:31:08;6.22;;;2.53;;
19482;SDS011;9882;51.166;6.992;2024-02-04T09:33:38;4.95;;;2.47;;
19482;SDS011;9882;51.166;6.992;2024-02-04T09:36:07;6.97;;;3.00;;
19482;SDS011;9882;51.166;6.992;2024-02-04T09:38:37;3.78;;;2.50;;
19482;SDS011;9882;51.166;6.992;2024-02-04T09:41:06;6.15;;;2.40;;
19482;SDS011;9882;51.166;6.992;2024-02-04T09:43:35;6.05;;;2.40;;
19482;SDS011;9882;51.166;6.992;2024-02-04T09:46:05;6.72;;;3.08;;
19482;SDS011;9882;51.166;6.992;2024-02-04T09:48:37;4.18;;;2.53;;
19482;SDS011;9882;51.166;6.992;2024-02-04T09:51:07;6.13;;;2.90;;
19482;SDS011;9882;51.166;6.992;2024-02-04T09:53:39;3.67;;;2.35;;
19482;SDS011;9882;51.166;6.992;2024-02-04T09:56:12;4.55;;;2.70;;
19482;SDS011;9882;51.166;6.992;2024-02-04T09:58:43;4.30;;;2.42;;
19482;SDS011;9882;51.166;6.992;2024-02-04T10:01:13;5.80;;;2.40;;
19482;SDS011;9882;51.166;6.992;2024-02-04T10:03:48;4.10;;;2.10;;
19482;SDS011;9882;51.166;6.992;2024-02-04T10:06:17;5.38;;;2.78;;
19482;SDS011;9882;51.166;6.992;2024-02-04T10:08:46;7.43;;;2.40;;
19482;SDS011;9882;51.166;6.992;2024-02-04T10:11:15;4.72;;;2.60;;
19482;SDS011;9882;51.166;6.992;2024-02-04T10:13:44;4.70;;;2.78;;
19482;SDS011;9882;51.166;6.992;2024-02-04T10:16:14;4.82;;;2.33;;
19482;SDS011;9882;51.166;6.992;2024-02-04T10:18:43;5.82;;;2.78;;
19482;SDS011;9882;51.166;6.992;2024-02-04T10:21:18;5.45;;;2.50;;
19482;SDS011;9882;51.166;6.992;2024-02-04T10:23:48;9.80;;;3.05;;
19482;SDS011;9882;51.166;6.992;2024-02-04T10:26:18;3.85;;;2.53;;
19482;SDS011;9882;51.166;6.992;2024-02-04T10:28:48;4.55;;;2.53;;
19482;SDS011;9882;51.166;6.992;2024-02-04T10:31:17;3.03;;;2.40;;
19482;SDS011;9882;51.166;6.992;2024-02-04T10:33:47;6.75;;;2.92;;
19482;SDS011;9882;51.166;6.992;2024-02-04T10:36:15;8.70;;;3.25;;
19482;SDS011;9882;51.166;6.992;2024-02-04T10:38:46;7.32;;;2.65;;
19482;SDS011;9882;51.166;6.992;2024-02-04T10:41:17;5.80;;;2.50;;
19482;SDS011;9882;51.166;6.992;2024-02-04T10:43:46;6.90;;;3.03;;
19482;SDS011;9882;51.166;6.992;2024-02-04T10:46:17;4.40;;;2.25;;
19482;SDS011;9882;51.166;6.992;2024-02-04T10:48:51;6.07;;;3.03;;
19482;SDS011;9882;51.166;6.992;2024-02-04T10:51:26;12.57;;;3.25;;
19482;SDS011;9882;51.166;6.992;2024-02-04T10:53:55;6.35;;;3.13;;
19482;SDS011;9882;51.166;6.992;2024-02-04T10:56:29;8.18;;;2.53;;
19482;SDS011;9882;51.166;6.992;2024-02-04T10:59:00;5.32;;;2.78;;
19482;SDS011;9882;51.166;6.992;2024-02-04T11:01:30;8.25;;;3.28;;
19482;SDS011;9882;51.166;6.992;2024-02-04T11:04:00;9.30;;;3.70;;
19482;SDS011;9882;51.166;6.992;2024-02-04T11:06:32;8.13;;;3.47;;
19482;SDS011;9882;51.166;6.992;2024-02-04T11:09:02;6.43;;;3.30;;
19482;SDS011;9882;51.166;6.992;2024-02-04T11:11:33;6.68;;;3.17;;
19482;SDS011;9882;51.166;6.992;2024-02-04T11:14:02;8.35;;;3.20;;
19482;SDS011;9882;51.166;6.992;2024-02-04T11:16:40;10.55;;;3.80;;
19482;SDS011;9882;51.166;6.992;2024-02-04T11:19:37;7.13;;;3.10;;
19482;SDS011;9882;51.166;6.992;2024-02-04T11:22:25;7.53;;;3.50;;
19482;SDS011;9882;51.166;6.992;2024-02-04T11:25:12;7.25;;;2.88;;
19482;SDS011;9882;51.166;6.992;2024-02-04T11:27:51;6.65;;;2.95;;
19482;SDS011;9882;51.166;6.992;2024-02-04T11:30:22;7.40;;;3.47;;
19482;SDS011;9882;51.166;6.992;2024-02-04T11:32:51;7.03;;;2.88;;
19482;SDS011;9882;51.166;6.992;2024-02-04T11:35:23;4.90;;;2.90;;
19482;SDS011;9882;51.166;6.992;2024-02-04T11:37:54;6.13;;;2.63;;
19482;SDS011;9882;51.166;6.992;2024-02-04T11:40:29;4.28;;;2.42;;
19482;SDS011;9882;51.166;6.992;2024-02-04T11:43:03;8.57;;;2.92;;
19482;SDS011;9882;51.166;6.992;2024-02-04T11:45:37;5.55;;;2.80;;
19482;SDS011;9882;51.166;6.992;2024-02-04T11:48:07;5.78;;;3.17;;
19482;SDS011;9882;51.166;6.992;2024-02-04T11:50:37;4.93;;;2.95;;
19482;SDS011;9882;51.166;6.992;2024-02-04T11:53:09;5.55;;;2.88;;
19482;SDS011;9882;51.166;6.992;2024-02-04T11:55:39;3.70;;;2.55;;
19482;SDS011;9882;51.166;6.992;2024-02-04T11:58:09;9.20;;;3.38;;
19482;SDS011;9882;51.166;6.992;2024-02-04T12:00:42;11.13;;;3.08;;
19482;SDS011;9882;51.166;6.992;2024-02-04T12:03:12;4.90;;;3.00;;
19482;SDS011;9882;51.166;6.992;2024-02-04T12:05:41;3.65;;;2.45;;
19482;SDS011;9882;51.166;6.992;2024-02-04T12:08:12;4.95;;;2.72;;
19482;SDS011;9882;51.166;6.992;2024-02-04T12:10:42;6.10;;;2.80;;
19482;SDS011;9882;51.166;6.992;2024-02-04T12:13:11;6.28;;;3.00;;
19482;SDS011;9882;51.166;6.992;2024-02-04T12:15:40;6.93;;;2.70;;
19482;SDS011;9882;51.166;6.992;2024-02-04T12:18:09;5.90;;;2.92;;
19482;SDS011;9882;51.166;6.992;2024-02-04T12:20:41;7.90;;;3.50;;
19482;SDS011;9882;51.166;6.992;2024-02-04T12:23:10;5.25;;;2.53;;
19482;SDS011;9882;51.166;6.992;2024-02-04T12:25:41;12.20;;;3.15;;
19482;SDS011;9882;51.166;6.992;2024-02-04T12:28:10;4.53;;;2.85;;
19482;SDS011;9882;51.166;6.992;2024-02-04T12:30:40;8.40;;;2.95;;
19482;SDS011;9882;51.166;6.992;2024-02-04T12:33:09;5.40;;;3.05;;
19482;SDS011;9882;51.166;6.992;2024-02-04T12:35:38;4.63;;;2.80;;
19482;SDS011;9882;51.166;6.992;2024-02-04T12:38:06;5.30;;;2.80;;
19482;SDS011;9882;51.166;6.992;2024-02-04T12:40:39;5.32;;;2.90;;
19482;SDS011;9882;51.166;6.992;2024-02-04T12:43:10;9.30;;;2.97;;
19482;SDS011;9882;51.166;6.992;2024-02-04T12:45:39;8.20;;;3.03;;
19482;SDS011;9882;51.166;6.992;2024-02-04T12:48:09;3.55;;;2.17;;
19482;SDS011;9882;51.166;6.992;2024-02-04T12:50:42;4.47;;;2.45;;
19482;SDS011;9882;51.166;6.992;2024-02-04T12:53:11;2.95;;;2.42;;
19482;SDS011;9882;51.166;6.992;2024-02-04T12:55:43;5.50;;;2.75;;
19482;SDS011;9882;51.166;6.992;2024-02-04T12:58:12;5.70;;;2.63;;
19482;SDS011;9882;51.166;6.992;2024-02-04T13:00:44;4.32;;;2.33;;
19482;SDS011;9882;51.166;6.992;2024-02-04T13:03:15;3.65;;;2.47;;
19482;SDS011;9882;51.166;6.992;2024-02-04T13:05:44;2.58;;;2.05;;
19482;SDS011;9882;51.166;6.992;2024-02-04T13:08:14;3.03;;;2.13;;
19482;SDS011;9882;51.166;6.992;2024-02-04T13:10:48;7.25;;;2.90;;
19482;SDS011;9882;51.166;6.992;2024-02-04T13:13:26;4.50;;;2.40;;
19482;SDS011;9882;51.166;6.992;2024-02-04T13:15:56;4.93;;;2.78;;
19482;SDS011;9882;51.166;6.992;2024-02-04T13:18:25;6.47;;;2.50;;
19482;SDS011;9882;51.166;6.992;2024-02-04T13:20:54;4.63;;;2.50;;
19482;SDS011;9882;51.166;6.992;2024-02-04T13:23:23;4.43;;;2.78;;
19482;SDS011;9882;51.166;6.992;2024-02-04T13:25:56;3.35;;;2.05;;
19482;SDS011;9882;51.166;6.992;2024-02-04T13:28:25;2.95;;;2.42;;
19482;SDS011;9882;51.166;6.992;2024-02-04T13:30:54;3.28;;;1.98;;
19482;SDS011;9882;51.166;6.992;2024-02-04T13:33:23;10.30;;;2.97;;
19482;SDS011;9882;51.166;6.992;2024-02-04T13:35:52;4.75;;;3.00;;
19482;SDS011;9882;51.166;6.992;2024-02-04T13:38:21;3.70;;;2.63;;
19482;SDS011;9882;51.166;6.992;2024-02-04T13:40:50;5.35;;;3.00;;
19482;SDS011;9882;51.166;6.992;2024-02-04T13:43:20;8.05;;;3.42;;
19482;SDS011;9882;51.166;6.992;2024-02-04T13:45:49;8.00;;;3.85;;
19482;SDS011;9882;51.166;6.992;2024-02-04T13:48:18;9.25;;;3.35;;
19482;SDS011;9882;51.166;6.992;2024-02-04T13:50:49;6.95;;;3.08;;
19482;SDS011;9882;51.166;6.992;2024-02-04T13:53:18;4.32;;;3.03;;
19482;SDS011;9882;51.166;6.992;2024-02-04T13:55:47;4.05;;;2.90;;
19482;SDS011;9882;51.166;6.992;2024-02-04T13:58:17;5.25;;;3.17;;
19482;SDS011;9882;51.166;6.992;2024-02-04T14:00:47;7.20;;;3.13;;
19482;SDS011;9882;51.166;6.992;2024-02-04T14:03:16;6.78;;;2.78;;
19482;SDS011;9882;51.166;6.992;2024-02-04T14:05:45;5.95;;;2.83;;
19482;SDS011;9882;51.166;6.992;2024-02-04T14:08:14;5.55;;;3.33;;
19482;SDS011;9882;51.166;6.992;2024-02-04T14:10:43;8.40;;;3.42;;
19482;SDS011;9882;51.166;6.992;2024-02-04T14:13:12;6.88;;;3.10;;
19482;SDS011;9882;51.166;6.992;2024-02-04T14:15:42;8.95;;;3.10;;
19482;SDS011;9882;51.166;6.992;2024-02-04T14:18:12;4.00;;;2.92;;
19482;SDS011;9882;51.166;6.992;2024-02-04T14:20:43;5.05;;;2.75;;
19482;SDS011;9882;51.166;6.992;2024-02-04T14:23:13;10.85;;;3.80;;
19482;SDS011;9882;51.166;6.992;2024-02-04T14:25:42;7.57;;;2.70;;
19482;SDS011;9882;51.166;6.992;2024-02-04T14:28:13;5.18;;;3.10;;
19482;SDS011;9882;51.166;6.992;2024-02-04T14:30:43;5.43;;;2.75;;
19482;SDS011;9882;51.166;6.992;2024-02-04T14:33:14;4.93;;;2.50;;
19482;SDS011;9882;51.166;6.992;2024-02-04T14:35:44;4.90;;;2.47;;
19482;SDS011;9882;51.166;6.992;2024-02-04T14:38:14;3.28;;;2.88;;
19482;SDS011;9882;51.166;6.992;2024-02-04T14:40:43;5.55;;;2.85;;
19482;SDS011;9882;51.166;6.992;2024-02-04T14:43:12;3.40;;;2.60;;
19482;SDS011;9882;51.166;6.992;2024-02-04T14:45:42;4.75;;;2.90;;
19482;SDS011;9882;51.166;6.992;2024-02-04T14:48:11;2.67;;;2.47;;
19482;SDS011;9882;51.166;6.992;2024-02-04T14:50:41;2.53;;;1.92;;
19482;SDS011;9882;51.166;6.992;2024-02-04T14:53:11;3.72;;;2.45;;
19482;SDS011;9882;51.166;6.992;2024-02-04T14:55:40;9.07;;;3.30;;
19482;SDS011;9882;51.166;6.992;2024-02-04T14:58:10;5.85;;;3.20;;
19482;SDS011;9882;51.166;6.992;2024-02-04T15:00:39;4.28;;;3.00;;
19482;SDS011;9882;51.166;6.992;2024-02-04T15:03:08;9.73;;;3.22;;
19482;SDS011;9882;51.166;6.992;2024-02-04T15:05:38;8.70;;;2.92;;
19482;SDS011;9882;51.166;6.992;2024-02-04T15:08:10;4.82;;;2.58;;
19482;SDS011;9882;51.166;6.992;2024-02-04T15:10:39;3.85;;;2.67;;
19482;SDS011;9882;51.166;6.992;2024-02-04T15:13:08;6.15;;;2.88;;
19482;SDS011;9882;51.166;6.992;2024-02-04T15:15:38;4.60;;;2.70;;